createdAt,value
2022-08-17T00:02:25.343Z,22.60
2022-08-17T00:04:54.696Z,22.60
2022-08-17T00:07:21.498Z,22.50
2022-08-17T00:09:48.208Z,22.50
2022-08-17T00:12:35.115Z,22.50
2022-08-17T00:15:01.636Z,22.40
2022-08-17T00:17:28.401Z,22.40
2022-08-17T00:19:55.107Z,22.40
2022-08-17T00:22:34.522Z,22.40
2022-08-17T00:25:07.211Z,22.40
2022-08-17T00:27:34.611Z,22.40
2022-08-17T00:30:01.557Z,22.40
2022-08-17T00:33:12.624Z,22.40
2022-08-17T00:35:17.621Z,22.30
2022-08-17T00:37:44.357Z,22.30
2022-08-17T00:40:14.056Z,22.30
2022-08-17T00:42:41.609Z,22.30
2022-08-17T00:45:11.857Z,22.30
2022-08-17T00:47:38.506Z,22.20
2022-08-17T00:50:07.764Z,22.20
2022-08-17T00:52:39.762Z,22.20
2022-08-17T00:55:07.708Z,22.20
2022-08-17T00:57:40.013Z,22.20
2022-08-17T01:00:21.268Z,22.20
2022-08-17T01:02:48.651Z,22.20
2022-08-17T01:05:19.377Z,22.10
2022-08-17T01:07:49.290Z,22.10
2022-08-17T01:10:59.083Z,22.00
2022-08-17T01:13:05.049Z,22.10
2022-08-17T01:15:38.569Z,22.00
2022-08-17T01:18:08.400Z,22.00
2022-08-17T01:20:48.314Z,22.00
2022-08-17T01:23:20.907Z,22.00
2022-08-17T01:25:54.040Z,22.00
2022-08-17T01:28:52.359Z,22.00
2022-08-17T01:31:10.767Z,22.00
2022-08-17T01:33:37.708Z,21.90
2022-08-17T01:36:06.952Z,21.90
2022-08-17T01:38:35.293Z,21.90
2022-08-17T01:41:09.399Z,21.90
2022-08-17T01:43:53.684Z,21.90
2022-08-17T01:46:24.819Z,21.90
2022-08-17T01:48:51.612Z,21.90
2022-08-17T01:51:19.117Z,21.90
2022-08-17T01:53:52.439Z,21.90
2022-08-17T01:56:21.925Z,21.90
2022-08-17T01:58:49.152Z,21.90
2022-08-17T02:01:19.347Z,21.90
2022-08-17T02:03:59.133Z,21.90
2022-08-17T02:06:30.619Z,21.80
2022-08-17T02:09:03.437Z,21.70
2022-08-17T02:11:32.715Z,21.70
2022-08-17T02:14:02.753Z,21.70
2022-08-17T02:16:37.776Z,21.70
2022-08-17T02:19:07.343Z,21.70
2022-08-17T02:21:34.519Z,21.70
2022-08-17T02:24:01.537Z,21.60
2022-08-17T02:26:28.278Z,21.60
2022-08-17T02:28:54.966Z,21.60
2022-08-17T02:31:21.683Z,21.60
2022-08-17T02:34:00.260Z,21.50
2022-08-17T02:36:31.806Z,21.50
2022-08-17T02:38:58.610Z,21.50
2022-08-17T02:41:25.555Z,21.50
2022-08-17T02:43:53.081Z,21.50
2022-08-17T02:46:19.750Z,21.50
2022-08-17T02:48:46.499Z,21.50
2022-08-17T02:51:13.243Z,21.50
2022-08-17T02:53:40.038Z,21.50
2022-08-17T02:56:07.081Z,21.50
2022-08-17T02:58:35.696Z,21.50
2022-08-17T03:01:05.862Z,21.40
2022-08-17T03:03:33.031Z,21.40
2022-08-17T03:05:59.695Z,21.40
2022-08-17T03:08:27.189Z,21.40
2022-08-17T03:10:54.041Z,21.40
2022-08-17T03:13:20.860Z,21.40
2022-08-17T03:15:48.622Z,21.30
2022-08-17T03:18:25.401Z,21.30
2022-08-17T03:20:58.156Z,21.30
2022-08-17T03:23:25.775Z,21.30
2022-08-17T03:25:54.080Z,21.30
2022-08-17T03:28:22.140Z,21.30
2022-08-17T03:30:50.944Z,21.30
2022-08-17T03:33:18.168Z,21.30
2022-08-17T03:35:45.034Z,21.30
2022-08-17T03:38:12.754Z,21.30
2022-08-17T03:40:56.728Z,21.30
2022-08-17T03:43:30.571Z,21.30
2022-08-17T03:46:28.452Z,21.30
2022-08-17T03:49:21.735Z,21.20
2022-08-17T03:52:07.104Z,21.20
2022-08-17T03:54:52.787Z,21.30
2022-08-17T03:57:19.514Z,21.30
2022-08-17T03:59:46.534Z,21.20
2022-08-17T04:02:26.745Z,21.20
2022-08-17T04:04:54.148Z,21.20
2022-08-17T04:07:23.351Z,21.20
2022-08-17T04:09:50.547Z,21.20
2022-08-17T04:12:21.728Z,21.20
2022-08-17T04:14:53.169Z,21.20
2022-08-17T04:17:26.194Z,21.20
2022-08-17T04:19:53.843Z,21.20
2022-08-17T04:22:32.681Z,21.30
2022-08-17T04:25:16.997Z,21.30
2022-08-17T04:27:43.964Z,21.30
2022-08-17T04:30:11.703Z,21.20
2022-08-17T04:33:06.496Z,21.20
2022-08-17T04:35:38.487Z,21.20
2022-08-17T04:38:06.838Z,21.30
2022-08-17T04:40:52.591Z,21.30
2022-08-17T04:43:21.919Z,21.30
2022-08-17T04:45:56.176Z,21.30
2022-08-17T04:48:36.234Z,21.20
2022-08-17T04:51:16.724Z,21.20
2022-08-17T04:53:46.080Z,21.30
2022-08-17T04:56:21.377Z,21.20
2022-08-17T04:58:51.441Z,21.20
2022-08-17T05:01:23.377Z,21.20
2022-08-17T05:03:56.470Z,21.30
2022-08-17T05:06:23.686Z,21.30
2022-08-17T05:08:50.317Z,21.30
2022-08-17T05:11:17.124Z,21.30
2022-08-17T05:13:44.675Z,21.30
2022-08-17T05:16:11.600Z,21.40
2022-08-17T05:18:39.029Z,21.40
2022-08-17T05:21:06.985Z,21.40
2022-08-17T05:23:43.060Z,21.50
2022-08-17T05:26:26.495Z,21.50
2022-08-17T05:28:59.831Z,21.60
2022-08-17T05:31:30.700Z,21.70
2022-08-17T05:33:57.999Z,21.70
2022-08-17T05:36:42.230Z,21.80
2022-08-17T05:39:15.960Z,21.80
2022-08-17T05:41:44.963Z,21.90
2022-08-17T05:44:11.621Z,21.90
2022-08-17T05:46:41.938Z,21.90
2022-08-17T05:49:09.466Z,22.00
2022-08-17T05:51:55.688Z,22.00
2022-08-17T05:54:47.926Z,22.00
2022-08-17T05:57:39.914Z,22.10
2022-08-17T06:00:30.902Z,22.20
2022-08-17T06:03:16.746Z,22.20
2022-08-17T06:05:46.129Z,22.30
2022-08-17T06:08:30.968Z,22.30
2022-08-17T06:11:20.446Z,22.30
2022-08-17T06:14:31.718Z,22.40
2022-08-17T06:17:09.419Z,22.40
2022-08-17T06:19:54.519Z,22.50
2022-08-17T06:22:25.112Z,22.50
2022-08-17T06:25:02.061Z,22.60
2022-08-17T06:27:44.999Z,22.60
2022-08-17T06:30:21.382Z,22.70
2022-08-17T06:32:50.980Z,22.70
2022-08-17T06:35:33.592Z,22.80
2022-08-17T06:38:37.215Z,22.80
2022-08-17T06:41:19.613Z,22.80
2022-08-17T06:44:49.719Z,22.90
2022-08-17T06:47:16.169Z,22.90
2022-08-17T06:50:20.409Z,23.00
2022-08-17T06:53:05.769Z,23.00
2022-08-17T06:55:46.941Z,23.00
2022-08-17T06:58:18.102Z,23.00
2022-08-17T07:00:58.534Z,23.00
2022-08-17T07:03:56.860Z,23.10
2022-08-17T07:06:29.275Z,23.10
2022-08-17T07:09:02.293Z,23.10
2022-08-17T07:11:39.816Z,23.10
2022-08-17T07:14:31.073Z,23.10
2022-08-17T07:17:01.215Z,23.10
2022-08-17T07:19:33.035Z,23.20
2022-08-17T07:22:18.411Z,23.20
2022-08-17T07:24:57.220Z,23.20
2022-08-17T07:27:37.610Z,23.20
2022-08-17T07:30:10.305Z,23.20
2022-08-17T07:32:45.705Z,23.30
2022-08-17T07:35:31.217Z,23.30
2022-08-17T07:38:28.081Z,23.30
2022-08-17T07:40:58.143Z,23.30
2022-08-17T07:43:31.192Z,23.30
2022-08-17T07:46:38.012Z,23.40
2022-08-17T07:49:07.385Z,23.40
2022-08-17T07:51:47.979Z,23.40
2022-08-17T07:54:27.391Z,23.40
2022-08-17T07:56:55.763Z,23.40
2022-08-17T07:59:43.301Z,23.30
2022-08-17T08:02:22.130Z,23.30
2022-08-17T08:05:12.940Z,23.30
2022-08-17T08:08:01.577Z,23.20
2022-08-17T08:10:38.820Z,23.30
2022-08-17T08:13:27.372Z,23.30
2022-08-17T08:15:56.813Z,23.20
2022-08-17T08:18:53.572Z,23.10
2022-08-17T08:21:21.253Z,23.10
2022-08-17T08:24:23.103Z,23.00
2022-08-17T08:27:09.124Z,23.00
2022-08-17T08:29:41.910Z,22.90
2022-08-17T08:32:11.682Z,22.90
2022-08-17T08:35:12.970Z,22.90
2022-08-17T08:37:56.853Z,23.00
2022-08-17T08:40:45.887Z,23.00
2022-08-17T08:43:15.321Z,23.00
2022-08-17T08:45:58.585Z,23.00
2022-08-17T08:49:10.091Z,23.00
2022-08-17T08:51:58.164Z,23.10
2022-08-17T08:54:56.338Z,23.10
2022-08-17T08:57:34.676Z,23.00
2022-08-17T09:00:14.746Z,23.00
2022-08-17T09:02:59.144Z,23.00
2022-08-17T09:05:56.961Z,23.00
2022-08-17T09:08:29.846Z,23.00
2022-08-17T09:11:15.115Z,23.00
2022-08-17T09:14:21.663Z,23.00
2022-08-17T09:17:02.655Z,23.00
2022-08-17T09:19:38.733Z,23.00
2022-08-17T09:22:30.378Z,23.00
2022-08-17T09:24:57.223Z,23.00
2022-08-17T09:27:30.930Z,23.10
2022-08-17T09:30:02.982Z,23.00
2022-08-17T09:32:45.464Z,23.10
2022-08-17T09:35:19.771Z,23.10
2022-08-17T09:38:14.711Z,23.30
2022-08-17T09:41:05.532Z,23.50
2022-08-17T09:43:50.927Z,23.70
2022-08-17T09:46:22.900Z,24.00
2022-08-17T09:48:56.575Z,24.20
2022-08-17T09:51:36.474Z,24.30
2022-08-17T09:54:34.767Z,24.40
2022-08-17T09:57:31.092Z,24.50
2022-08-17T10:00:15.833Z,24.60
2022-08-17T10:03:22.719Z,24.60
2022-08-17T10:05:56.696Z,24.60
2022-08-17T10:08:52.230Z,24.60
2022-08-17T10:11:50.770Z,24.70
2022-08-17T10:14:43.789Z,24.70
2022-08-17T10:17:14.489Z,24.70
2022-08-17T10:20:00.980Z,24.80
2022-08-17T10:22:55.134Z,24.80
2022-08-17T10:25:54.644Z,24.80
2022-08-17T10:28:39.283Z,24.80
2022-08-17T10:34:20.778Z,24.80
2022-08-17T10:36:55.221Z,24.80
2022-08-17T10:39:54.684Z,24.80
2022-08-17T10:42:30.329Z,24.80
2022-08-17T10:45:05.853Z,24.80
2022-08-17T10:48:05.349Z,24.90
2022-08-17T10:50:56.120Z,24.80
2022-08-17T10:53:32.028Z,24.90
2022-08-17T10:56:13.751Z,25.00
2022-08-17T10:58:55.516Z,25.00
2022-08-17T11:01:37.957Z,25.00
2022-08-17T11:04:09.853Z,25.00
2022-08-17T11:06:51.381Z,25.10
2022-08-17T11:09:51.822Z,25.20
2022-08-17T11:12:30.570Z,25.20
2022-08-17T11:15:24.662Z,25.20
2022-08-17T11:18:28.535Z,25.30
2022-08-17T11:21:07.750Z,25.40
2022-08-17T11:24:02.695Z,25.30
2022-08-17T11:26:32.010Z,25.40
2022-08-17T11:29:09.442Z,25.50
2022-08-17T11:31:46.467Z,25.50
2022-08-17T11:34:26.135Z,25.60
2022-08-17T11:37:08.924Z,25.70
2022-08-17T11:40:05.286Z,25.70
2022-08-17T11:42:59.283Z,25.80
2022-08-17T11:45:44.629Z,25.90
2022-08-17T11:48:45.959Z,25.90
2022-08-17T11:51:46.572Z,25.90
2022-08-17T11:54:33.768Z,26.00
2022-08-17T11:57:26.570Z,26.10
2022-08-17T12:00:10.962Z,26.10
2022-08-17T12:02:48.308Z,26.10
2022-08-17T12:05:16.772Z,26.10
2022-08-17T12:07:49.087Z,26.10
2022-08-17T12:10:21.495Z,26.20
2022-08-17T12:12:52.729Z,26.20
2022-08-17T12:15:32.307Z,26.20
2022-08-17T12:17:59.319Z,26.30
2022-08-17T12:20:33.676Z,26.30
2022-08-17T12:23:25.537Z,26.40
2022-08-17T12:26:06.294Z,26.40
2022-08-17T12:28:38.566Z,26.40
2022-08-17T12:31:15.984Z,26.40
2022-08-17T12:33:45.387Z,26.40
2022-08-17T12:36:16.203Z,26.40
2022-08-17T12:38:57.169Z,26.40
2022-08-17T12:41:34.171Z,26.40
2022-08-17T12:44:06.099Z,26.40
2022-08-17T12:46:44.680Z,26.40
2022-08-17T12:49:35.477Z,26.50
2022-08-17T12:52:20.102Z,26.50
2022-08-17T12:54:54.279Z,26.50
2022-08-17T12:57:34.766Z,26.40
2022-08-17T13:00:17.434Z,26.40
2022-08-17T13:03:09.006Z,26.50
2022-08-17T13:05:42.844Z,26.50
2022-08-17T13:08:16.130Z,26.50
2022-08-17T13:10:43.909Z,26.60
2022-08-17T13:13:26.639Z,26.60
2022-08-17T13:16:00.185Z,26.60
2022-08-17T13:18:35.037Z,26.70
2022-08-17T13:21:02.229Z,26.80
2022-08-17T13:23:31.264Z,26.80
2022-08-17T13:26:05.890Z,26.80
2022-08-17T13:28:36.332Z,26.90
2022-08-17T13:31:51.901Z,26.90
2022-08-17T13:34:26.805Z,27.00
2022-08-17T13:37:19.421Z,27.00
2022-08-17T13:39:49.816Z,27.00
2022-08-17T13:42:48.132Z,27.00
2022-08-17T13:45:36.733Z,27.10
2022-08-17T13:48:16.872Z,27.10
2022-08-17T13:50:55.653Z,27.10
2022-08-17T13:53:24.067Z,27.10
2022-08-17T13:55:52.265Z,27.20
2022-08-17T13:58:28.094Z,27.20
2022-08-17T14:00:56.173Z,27.20
2022-08-17T14:03:23.948Z,27.30
2022-08-17T14:05:52.551Z,27.20
2022-08-17T14:08:20.671Z,27.20
2022-08-17T14:10:57.248Z,27.20
2022-08-17T14:13:24.265Z,27.30
2022-08-17T14:15:54.810Z,27.30
2022-08-17T14:18:34.266Z,27.30
2022-08-17T14:21:10.493Z,27.30
2022-08-17T14:23:37.617Z,27.30
2022-08-17T14:26:04.806Z,27.30
2022-08-17T14:28:31.970Z,27.40
2022-08-17T14:31:00.297Z,27.40
2022-08-17T14:33:28.647Z,27.30
2022-08-17T14:35:57.424Z,27.40
2022-08-17T14:38:24.577Z,27.40
2022-08-17T14:40:51.330Z,27.30
2022-08-17T14:43:18.592Z,27.40
2022-08-17T14:45:45.262Z,27.40
2022-08-17T14:48:11.907Z,27.40
2022-08-17T14:50:40.963Z,27.50
2022-08-17T14:53:10.523Z,27.50
2022-08-17T14:55:40.389Z,27.50
2022-08-17T14:58:08.761Z,27.60
2022-08-17T15:00:38.037Z,27.60
2022-08-17T15:03:05.224Z,27.60
2022-08-17T15:05:35.301Z,27.60
2022-08-17T15:08:02.790Z,27.60
2022-08-17T15:10:30.580Z,27.50
2022-08-17T15:12:57.807Z,27.60
2022-08-17T15:15:25.016Z,27.60
2022-08-17T15:17:51.988Z,27.60
2022-08-17T15:20:21.435Z,27.60
2022-08-17T15:22:55.936Z,27.60
2022-08-17T15:25:25.050Z,27.60
2022-08-17T15:27:52.193Z,27.70
2022-08-17T15:30:19.376Z,27.70
2022-08-17T15:32:50.845Z,27.70
2022-08-17T15:35:27.407Z,27.60
2022-08-17T15:38:04.568Z,27.60
2022-08-17T15:40:34.957Z,27.50
2022-08-17T15:43:10.765Z,27.60
2022-08-17T15:45:38.269Z,27.70
2022-08-17T15:48:05.188Z,27.60
2022-08-17T15:50:32.174Z,27.70
2022-08-17T15:53:00.701Z,27.70
2022-08-17T15:55:30.186Z,27.60
2022-08-17T15:57:56.856Z,27.70
2022-08-17T16:00:23.964Z,27.70
2022-08-17T16:03:45.260Z,27.60
2022-08-17T16:05:37.783Z,27.60
2022-08-17T16:08:07.508Z,27.50
2022-08-17T16:10:34.762Z,27.60
2022-08-17T16:13:03.061Z,27.60
2022-08-17T16:15:31.395Z,27.70
2022-08-17T16:17:59.714Z,27.60
2022-08-17T16:20:27.012Z,27.60
2022-08-17T16:22:54.966Z,27.60
2022-08-17T16:25:50.328Z,27.70
2022-08-17T16:28:15.368Z,27.70
2022-08-17T16:30:42.430Z,27.70
2022-08-17T16:33:11.506Z,27.70
2022-08-17T16:35:38.669Z,27.70
2022-08-17T16:38:05.498Z,27.70
2022-08-17T16:40:36.068Z,27.80
2022-08-17T16:43:04.148Z,27.80
2022-08-17T16:45:39.945Z,27.80
2022-08-17T16:48:08.322Z,27.90
2022-08-17T16:50:36.083Z,27.80
2022-08-17T16:53:10.215Z,27.90
2022-08-17T16:55:37.270Z,27.90
2022-08-17T16:58:05.566Z,27.90
2022-08-17T17:00:33.455Z,27.90
2022-08-17T17:03:19.433Z,27.90
2022-08-17T17:05:55.337Z,27.90
2022-08-17T17:08:48.373Z,27.90
2022-08-17T17:11:33.999Z,27.90
2022-08-17T17:14:05.915Z,27.90
2022-08-17T17:16:52.515Z,28.00
2022-08-17T17:19:34.628Z,27.90
2022-08-17T17:22:26.774Z,27.90
2022-08-17T17:25:27.884Z,27.90
2022-08-17T17:28:29.421Z,27.90
2022-08-17T17:31:20.369Z,27.90
2022-08-17T17:33:52.434Z,27.90
2022-08-17T17:36:38.227Z,27.80
2022-08-17T17:39:11.737Z,27.80
2022-08-17T17:41:59.625Z,27.80
2022-08-17T17:44:32.950Z,27.80
2022-08-17T17:47:02.191Z,27.80
2022-08-17T17:49:33.927Z,27.70
2022-08-17T17:52:13.182Z,27.80
2022-08-17T17:55:04.399Z,27.80
2022-08-17T17:58:00.483Z,27.70
2022-08-17T18:00:44.095Z,27.60
2022-08-17T18:03:32.778Z,27.70
2022-08-17T18:06:26.363Z,27.60
2022-08-17T18:09:11.494Z,27.50
2022-08-17T18:11:53.116Z,27.50
2022-08-17T18:14:44.610Z,27.60
2022-08-17T18:17:11.969Z,27.60
2022-08-17T18:19:39.825Z,27.50
2022-08-17T18:22:21.432Z,27.40
2022-08-17T18:24:55.732Z,27.50
2022-08-17T18:27:33.632Z,27.40
2022-08-17T18:30:21.385Z,27.40
2022-08-17T18:32:48.156Z,27.40
2022-08-17T18:35:14.779Z,27.40
2022-08-17T18:37:43.120Z,27.30
2022-08-17T18:40:21.734Z,27.30
2022-08-17T18:43:02.722Z,27.30
2022-08-17T18:45:49.569Z,27.30
2022-08-17T18:48:22.107Z,27.30
2022-08-17T18:50:51.373Z,27.30
2022-08-17T18:53:37.096Z,27.20
2022-08-17T18:56:21.370Z,27.20
2022-08-17T18:58:58.758Z,27.20
2022-08-17T19:01:41.682Z,27.10
2022-08-17T19:04:27.331Z,27.10
2022-08-17T19:07:06.684Z,27.00
2022-08-17T19:09:38.118Z,27.00
2022-08-17T19:12:10.114Z,27.00
2022-08-17T19:14:36.895Z,26.90
2022-08-17T19:17:15.505Z,26.90
2022-08-17T19:20:07.513Z,26.80
2022-08-17T19:23:12.015Z,26.80
2022-08-17T19:25:46.005Z,26.70
2022-08-17T19:28:54.450Z,26.70
2022-08-17T19:31:29.688Z,26.70
2022-08-17T19:33:58.353Z,26.60
2022-08-17T19:36:49.248Z,26.60
2022-08-17T19:39:38.005Z,26.50
2022-08-17T19:42:11.593Z,26.50
2022-08-17T19:44:58.928Z,26.40
2022-08-17T19:47:53.654Z,26.40
2022-08-17T19:50:29.905Z,26.30
2022-08-17T19:53:19.552Z,26.30
2022-08-17T19:55:55.105Z,26.30
2022-08-17T19:58:34.057Z,26.30
2022-08-17T20:01:00.930Z,26.20
2022-08-17T20:03:34.823Z,26.20
2022-08-17T20:06:13.076Z,26.20
2022-08-17T20:08:52.825Z,26.20
2022-08-17T20:11:35.164Z,26.20
2022-08-17T20:14:18.838Z,26.20
2022-08-17T20:16:45.854Z,26.10
2022-08-17T20:19:44.611Z,26.10
2022-08-17T20:22:16.584Z,26.00
2022-08-17T20:25:10.797Z,26.00
2022-08-17T20:27:54.907Z,25.90
2022-08-17T20:30:37.526Z,25.90
2022-08-17T20:33:08.163Z,25.90
2022-08-17T20:35:40.303Z,25.80
2022-08-17T20:38:31.695Z,25.80
2022-08-17T20:41:04.210Z,25.80
2022-08-17T20:43:34.015Z,25.70
2022-08-17T20:46:03.581Z,25.60
2022-08-17T20:48:41.643Z,25.60
2022-08-17T20:52:01.768Z,25.50
2022-08-17T20:54:40.828Z,25.50
2022-08-17T20:57:13.677Z,25.50
2022-08-17T20:59:43.971Z,25.50
2022-08-17T21:02:19.715Z,25.40
2022-08-17T21:05:00.153Z,25.40
2022-08-17T21:07:43.086Z,25.30
2022-08-17T21:10:10.471Z,25.30
2022-08-17T21:12:48.103Z,25.30
2022-08-17T21:15:38.863Z,25.20
2022-08-17T21:18:25.922Z,25.20
2022-08-17T21:21:01.932Z,25.10
2022-08-17T21:23:40.341Z,25.10
2022-08-17T21:26:30.134Z,25.00
2022-08-17T21:29:31.936Z,25.00
2022-08-17T21:31:59.716Z,25.00
2022-08-17T21:34:38.753Z,25.00
2022-08-17T21:37:23.582Z,25.00
2022-08-17T21:40:01.458Z,25.00
2022-08-17T21:42:33.156Z,25.10
2022-08-17T21:45:17.898Z,25.00
2022-08-17T21:48:12.381Z,25.00
2022-08-17T21:50:41.691Z,25.00
2022-08-17T21:53:13.628Z,25.00
2022-08-17T21:55:40.592Z,25.00
2022-08-17T21:58:28.889Z,25.00
2022-08-17T22:01:23.756Z,25.00
2022-08-17T22:04:06.509Z,25.00
2022-08-17T22:06:34.948Z,24.90
2022-08-17T22:09:15.591Z,24.90
2022-08-17T22:11:54.173Z,24.90
2022-08-17T22:14:53.444Z,24.80
2022-08-17T22:17:26.280Z,24.80
2022-08-17T22:19:54.240Z,24.80
2022-08-17T22:22:59.668Z,24.80
2022-08-17T22:25:27.989Z,24.80
2022-08-17T22:28:01.600Z,24.80
2022-08-17T22:30:38.707Z,24.80
2022-08-17T22:33:33.413Z,24.80
2022-08-17T22:36:22.645Z,24.80
2022-08-17T22:39:00.975Z,24.80
2022-08-17T22:41:52.555Z,24.80
2022-08-17T22:44:29.396Z,24.80
2022-08-17T22:46:59.080Z,24.80
2022-08-17T22:49:53.432Z,24.80
2022-08-17T22:53:13.780Z,24.80
2022-08-17T22:56:10.979Z,24.80
2022-08-17T22:59:15.173Z,24.90
2022-08-17T23:01:45.365Z,24.90
2022-08-17T23:04:31.171Z,24.90
2022-08-17T23:06:57.858Z,24.90
2022-08-17T23:09:24.570Z,24.90
2022-08-17T23:11:57.216Z,24.90
2022-08-17T23:14:24.612Z,24.90
2022-08-17T23:16:51.722Z,24.90
2022-08-17T23:19:21.170Z,24.90
2022-08-17T23:21:54.127Z,25.00
2022-08-17T23:24:27.587Z,25.00
2022-08-17T23:26:56.993Z,25.00
2022-08-17T23:29:25.021Z,25.00
2022-08-17T23:31:52.436Z,25.00
2022-08-17T23:34:19.473Z,24.90
2022-08-17T23:36:50.660Z,24.90
2022-08-17T23:39:27.477Z,24.90
2022-08-17T23:41:57.237Z,24.90
2022-08-17T23:44:24.398Z,24.90
2022-08-17T23:46:52.503Z,24.90
2022-08-17T23:49:19.673Z,24.90
2022-08-17T23:51:48.645Z,24.90
2022-08-17T23:54:23.954Z,24.90
2022-08-17T23:56:50.728Z,24.90
2022-08-17T23:59:19.721Z,24.90
